Time;durP1;ratioP1;P1;durP2;ratioP2;P2;SDS_P1;SDS_P2;PMS_P1;PMS_P2;Temp;Humidity;BMP_temperature;BMP_pressure;BME280_temperature;BME280_humidity;BME280_pressure;Samples;Min_cycle;Max_cycle;Signal;HPM_P1;HPM_P2
2020/12/05 00:00:33;;;;;;;11.68;8.13;;;;;;;;;;6232076;28;20179;-73
2020/12/05 00:03:34;;;;;;;11.02;7.60;;;;;;;;;;6229088;28;20046;-70
2020/12/05 00:06:37;;;;;;;11.40;7.53;;;;;;;;;;6213841;28;20412;-70
2020/12/05 00:09:39;;;;;;;9.95;7.38;;;;;;;;;;6232846;28;20469;-71
2020/12/05 00:12:40;;;;;;;10.18;7.10;;;;;;;;;;6214228;28;20069;-71
2020/12/05 00:15:42;;;;;;;9.90;7.43;;;;;;;;;;6221880;28;20041;-70
2020/12/05 00:18:43;;;;;;;10.73;7.55;;;;;;;;;;6221580;28;20073;-69
2020/12/05 00:21:46;;;;;;;10.50;7.03;;;;;;;;;;6235157;28;20048;-70
2020/12/05 00:24:48;;;;;;;11.07;7.15;;;;;;;;;;6234934;28;20055;-70
2020/12/05 00:27:51;;;;;;;11.55;6.95;;;;;;;;;;6237921;28;20060;-71
2020/12/05 00:30:52;;;;;;;11.20;7.10;;;;;;;;;;6233796;28;20045;-71
2020/12/05 00:33:53;;;;;;;9.77;7.50;;;;;;;;;;6230052;28;20037;-70
2020/12/05 00:36:55;;;;;;;10.95;7.05;;;;;;;;;;6222754;28;20049;-70
2020/12/05 00:39:56;;;;;;;8.55;6.43;;;;;;;;;;6239514;28;20500;-70
2020/12/05 00:42:57;;;;;;;9.63;6.97;;;;;;;;;;6239371;28;20496;-69
2020/12/05 00:45:59;;;;;;;15.23;9.80;;;;;;;;;;6242314;28;20465;-70
2020/12/05 00:49:00;;;;;;;114.00;52.92;;;;;;;;;;6240983;28;20061;-70
2020/12/05 00:52:03;;;;;;;63.22;27.58;;;;;;;;;;6239816;28;20041;-71
2020/12/05 00:55:04;;;;;;;115.20;57.47;;;;;;;;;;6241112;28;20046;-70
2020/12/05 00:58:05;;;;;;;29.13;17.58;;;;;;;;;;6240646;28;20050;-71
2020/12/05 01:01:06;;;;;;;38.33;18.77;;;;;;;;;;6243034;28;20053;-70
2020/12/05 01:04:07;;;;;;;13.00;8.73;;;;;;;;;;6237939;28;20122;-71
2020/12/05 01:07:09;;;;;;;10.55;7.18;;;;;;;;;;6229655;28;20053;-71
2020/12/05 01:10:10;;;;;;;9.80;7.28;;;;;;;;;;6228972;28;20053;-71
2020/12/05 01:13:11;;;;;;;9.75;6.55;;;;;;;;;;6236338;28;20132;-70
2020/12/05 01:16:12;;;;;;;12.73;7.65;;;;;;;;;;6235848;28;20049;-71
2020/12/05 01:19:13;;;;;;;8.82;7.15;;;;;;;;;;6234509;28;20061;-71
2020/12/05 01:22:15;;;;;;;11.15;7.28;;;;;;;;;;6233141;28;20041;-70
2020/12/05 01:25:16;;;;;;;11.32;7.05;;;;;;;;;;6237428;28;20054;-71
2020/12/05 01:28:17;;;;;;;9.85;7.22;;;;;;;;;;6243319;28;20126;-70
2020/12/05 01:31:18;;;;;;;9.88;6.30;;;;;;;;;;6240669;28;20049;-71
2020/12/05 01:34:19;;;;;;;10.00;6.30;;;;;;;;;;6221198;28;20099;-72
2020/12/05 01:37:21;;;;;;;8.85;6.35;;;;;;;;;;6218106;28;20061;-73
2020/12/05 01:40:22;;;;;;;10.18;6.82;;;;;;;;;;6220126;28;20057;-70
2020/12/05 01:43:24;;;;;;;9.63;6.90;;;;;;;;;;6216794;28;20177;-72
2020/12/05 01:46:34;;;;;;;8.13;6.03;;;;;;;;;;6214828;28;20076;-71
2020/12/05 01:49:35;;;;;;;7.70;6.20;;;;;;;;;;6214331;28;20363;-71
2020/12/05 01:52:37;;;;;;;8.13;5.70;;;;;;;;;;6239399;28;20102;-70
2020/12/05 01:55:38;;;;;;;7.15;6.00;;;;;;;;;;6228654;28;20132;-70
2020/12/05 01:58:39;;;;;;;7.82;6.30;;;;;;;;;;6235138;28;20053;-71
2020/12/05 02:01:41;;;;;;;10.38;7.03;;;;;;;;;;6239631;28;20128;-71
2020/12/05 02:04:52;;;;;;;8.38;6.32;;;;;;;;;;6235726;28;20148;-71
2020/12/05 02:07:56;;;;;;;9.15;7.13;;;;;;;;;;6221494;28;20041;-69
2020/12/05 02:10:57;;;;;;;;;;;;;;;;;;6235977;28;20079;-70
2020/12/05 02:14:01;;;;;;;10.25;7.63;;;;;;;;;;6238985;28;20395;-69
2020/12/05 02:17:04;;;;;;;8.82;7.22;;;;;;;;;;6237790;28;20057;-70
2020/12/05 02:20:09;;;;;;;10.07;7.88;;;;;;;;;;6238751;28;20060;-69
2020/12/05 02:23:12;;;;;;;11.55;7.85;;;;;;;;;;6217372;28;20834;-69
2020/12/05 02:26:14;;;;;;;10.02;7.70;;;;;;;;;;6214589;28;20136;-70
2020/12/05 02:29:16;;;;;;;11.50;8.52;;;;;;;;;;6214555;28;20081;-71
2020/12/05 02:32:17;;;;;;;15.13;10.10;;;;;;;;;;6214028;28;20049;-73
2020/12/05 02:35:18;;;;;;;13.65;9.15;;;;;;;;;;6227785;28;20515;-71
2020/12/05 02:38:22;;;;;;;12.73;9.48;;;;;;;;;;6212419;28;20135;-71
2020/12/05 02:41:23;;;;;;;14.50;10.05;;;;;;;;;;6235007;28;20136;-71
2020/12/05 02:44:25;;;;;;;15.25;10.57;;;;;;;;;;6240046;28;20130;-70
2020/12/05 02:47:26;;;;;;;15.90;10.77;;;;;;;;;;6219485;28;20052;-72
2020/12/05 02:50:27;;;;;;;16.13;11.20;;;;;;;;;;6237809;28;20041;-70
2020/12/05 02:53:29;;;;;;;15.52;10.68;;;;;;;;;;6209935;28;20378;-71
2020/12/05 02:56:30;;;;;;;18.00;10.68;;;;;;;;;;6212335;28;20139;-70
2020/12/05 02:59:32;;;;;;;17.05;11.75;;;;;;;;;;6232259;28;20049;-71
2020/12/05 03:02:33;;;;;;;19.38;12.73;;;;;;;;;;6216568;28;20081;-70
2020/12/05 03:05:34;;;;;;;22.95;12.75;;;;;;;;;;6209001;28;20624;-70
2020/12/05 03:08:36;;;;;;;20.23;12.00;;;;;;;;;;6232093;28;20094;-70
2020/12/05 03:11:37;;;;;;;20.20;12.68;;;;;;;;;;6251539;28;20094;-70
2020/12/05 03:14:38;;;;;;;22.70;11.77;;;;;;;;;;6241187;28;20049;-71
2020/12/05 03:17:40;;;;;;;21.75;13.02;;;;;;;;;;6208547;28;20041;-70
2020/12/05 03:20:41;;;;;;;21.30;13.13;;;;;;;;;;6223714;28;20164;-71
2020/12/05 03:23:45;;;;;;;19.80;12.68;;;;;;;;;;6232313;28;20570;-70
2020/12/05 03:26:46;;;;;;;21.13;13.18;;;;;;;;;;6234615;28;20464;-70
2020/12/05 03:29:50;;;;;;;23.33;12.73;;;;;;;;;;6234194;28;20115;-71
2020/12/05 03:32:52;;;;;;;24.05;14.15;;;;;;;;;;6232983;28;20041;-70
2020/12/05 03:35:53;;;;;;;24.88;14.13;;;;;;;;;;6235258;28;20057;-70
2020/12/05 03:38:55;;;;;;;28.98;13.95;;;;;;;;;;6219378;28;20148;-70
2020/12/05 03:41:56;;;;;;;22.90;14.23;;;;;;;;;;6209724;28;20164;-70
2020/12/05 03:44:57;;;;;;;23.75;14.07;;;;;;;;;;6226415;28;20148;-71
2020/12/05 03:47:58;;;;;;;22.42;13.60;;;;;;;;;;6234698;28;20045;-70
2020/12/05 03:50:59;;;;;;;25.00;14.38;;;;;;;;;;6237086;28;20053;-70
2020/12/05 03:54:01;;;;;;;25.60;14.35;;;;;;;;;;6241287;28;20063;-70
2020/12/05 03:57:02;;;;;;;29.95;16.38;;;;;;;;;;6232236;28;20124;-70
2020/12/05 04:00:04;;;;;;;22.80;14.27;;;;;;;;;;6238819;28;20580;-71
2020/12/05 04:03:05;;;;;;;27.38;15.40;;;;;;;;;;6237295;28;20041;-70
2020/12/05 04:06:06;;;;;;;27.25;15.18;;;;;;;;;;6237777;28;20132;-71
2020/12/05 04:09:08;;;;;;;25.75;14.95;;;;;;;;;;6232346;28;20137;-70
2020/12/05 04:12:09;;;;;;;27.40;15.55;;;;;;;;;;6232245;28;20500;-70
2020/12/05 04:15:10;;;;;;;22.10;12.88;;;;;;;;;;6236245;28;20091;-70
2020/12/05 04:18:11;;;;;;;28.02;14.45;;;;;;;;;;6232701;28;20045;-71
2020/12/05 04:21:12;;;;;;;23.02;13.43;;;;;;;;;;6231778;28;20404;-70
2020/12/05 04:24:14;;;;;;;26.17;14.00;;;;;;;;;;6222563;28;20148;-70
2020/12/05 04:27:15;;;;;;;23.75;13.65;;;;;;;;;;6233247;28;20644;-70
2020/12/05 04:30:16;;;;;;;27.45;14.45;;;;;;;;;;6234589;28;20062;-70
2020/12/05 04:33:17;;;;;;;24.58;13.48;;;;;;;;;;6231853;28;20049;-70
2020/12/05 04:36:18;;;;;;;25.38;13.70;;;;;;;;;;6233118;28;20049;-70
2020/12/05 04:39:20;;;;;;;21.65;12.63;;;;;;;;;;6234337;28;20125;-70
2020/12/05 04:42:21;;;;;;;23.15;13.18;;;;;;;;;;6213872;28;20042;-69
2020/12/05 04:45:22;;;;;;;21.27;11.90;;;;;;;;;;6221049;28;20068;-70
2020/12/05 04:48:23;;;;;;;21.95;11.90;;;;;;;;;;6232403;28;20037;-69
2020/12/05 04:51:27;;;;;;;23.08;12.10;;;;;;;;;;6234407;28;20057;-70
2020/12/05 04:54:28;;;;;;;24.85;11.88;;;;;;;;;;6222581;28;20053;-70
2020/12/05 04:57:38;;;;;;;21.95;11.20;;;;;;;;;;6238691;28;20185;-69
2020/12/05 05:00:39;;;;;;;22.98;11.30;;;;;;;;;;6227142;28;20203;-70
2020/12/05 05:03:40;;;;;;;23.58;11.57;;;;;;;;;;6232568;28;20099;-70
2020/12/05 05:06:41;;;;;;;21.55;10.90;;;;;;;;;;6241000;28;20073;-70
2020/12/05 05:09:48;;;;;;;19.73;10.60;;;;;;;;;;6236763;28;20045;-70
2020/12/05 05:12:50;;;;;;;19.88;11.07;;;;;;;;;;6225308;28;20421;-70
2020/12/05 05:15:52;;;;;;;25.77;12.25;;;;;;;;;;6216913;28;20057;-70
2020/12/05 05:18:53;;;;;;;25.75;11.95;;;;;;;;;;6215684;28;20065;-71
2020/12/05 05:21:54;;;;;;;26.10;11.80;;;;;;;;;;6235685;28;20072;-70
2020/12/05 05:25:03;;;;;;;26.45;11.60;;;;;;;;;;6238259;28;20206;-70
2020/12/05 05:28:04;;;;;;;26.83;11.73;;;;;;;;;;6223409;28;20136;-70
2020/12/05 05:31:13;;;;;;;29.95;12.90;;;;;;;;;;6216969;28;20038;-70
2020/12/05 05:34:19;;;;;;;32.13;13.43;;;;;;;;;;6231038;28;20053;-70
2020/12/05 05:37:21;;;;;;;29.60;12.85;;;;;;;;;;6232982;28;20037;-70
2020/12/05 05:40:25;;;;;;;32.65;13.32;;;;;;;;;;6233358;28;20144;-70
2020/12/05 05:43:27;;;;;;;27.02;12.75;;;;;;;;;;6240683;28;20064;-69
2020/12/05 05:46:30;;;;;;;31.60;12.52;;;;;;;;;;6240357;28;20053;-69
2020/12/05 05:49:33;;;;;;;37.50;14.43;;;;;;;;;;6216684;28;20049;-70
2020/12/05 05:52:34;;;;;;;36.92;15.23;;;;;;;;;;6208262;28;20095;-70
2020/12/05 05:55:43;;;;;;;40.58;15.23;;;;;;;;;;6212414;28;20636;-69
2020/12/05 05:58:45;;;;;;;42.13;15.52;;;;;;;;;;6231051;28;20136;-70
2020/12/05 06:01:49;;;;;;;36.53;14.05;;;;;;;;;;6212767;28;20103;-69
2020/12/05 06:04:50;;;;;;;40.55;16.05;;;;;;;;;;6232586;28;20068;-70
2020/12/05 06:07:52;;;;;;;45.35;15.30;;;;;;;;;;6234399;28;20057;-70
2020/12/05 06:10:56;;;;;;;36.50;14.07;;;;;;;;;;6233276;28;20083;-70
2020/12/05 06:13:59;;;;;;;33.70;13.65;;;;;;;;;;6234669;28;20183;-70
2020/12/05 06:17:00;;;;;;;34.58;13.75;;;;;;;;;;6236741;28;20061;-70
2020/12/05 06:20:01;;;;;;;43.20;14.95;;;;;;;;;;6233580;28;20794;-70
2020/12/05 06:23:04;;;;;;;40.97;15.57;;;;;;;;;;6237338;28;20106;-70
2020/12/05 06:26:09;;;;;;;40.60;14.90;;;;;;;;;;6232166;28;20064;-70
2020/12/05 06:29:10;;;;;;;42.70;16.33;;;;;;;;;;6214475;28;20100;-70
2020/12/05 06:32:11;;;;;;;44.17;15.32;;;;;;;;;;6213995;28;20584;-70
2020/12/05 06:35:34;;;;;;;40.67;15.02;;;;;;;;;;6221674;28;20492;-70
2020/12/05 06:38:35;;;;;;;48.83;15.73;;;;;;;;;;6235393;28;20049;-69
2020/12/05 06:41:38;;;;;;;39.95;15.52;;;;;;;;;;6220115;28;20140;-69
2020/12/05 06:44:40;;;;;;;45.92;17.25;;;;;;;;;;6217379;28;20045;-71
2020/12/05 06:47:41;;;;;;;39.17;15.20;;;;;;;;;;6234145;28;20060;-70
2020/12/05 06:50:43;;;;;;;51.22;16.85;;;;;;;;;;6233519;28;20724;-70
2020/12/05 06:53:47;;;;;;;49.38;18.15;;;;;;;;;;6235375;28;20041;-70
2020/12/05 06:56:49;;;;;;;54.13;17.77;;;;;;;;;;6237084;28;20072;-70
2020/12/05 06:59:50;;;;;;;51.15;17.20;;;;;;;;;;6240996;28;20064;-70
2020/12/05 07:02:53;;;;;;;47.47;17.90;;;;;;;;;;6221157;28;20046;-70
2020/12/05 07:05:55;;;;;;;43.53;16.42;;;;;;;;;;6229447;28;20141;-70
2020/12/05 07:08:57;;;;;;;53.90;16.70;;;;;;;;;;6211010;28;20486;-70
2020/12/05 07:12:20;;;;;;;50.08;16.83;;;;;;;;;;6240330;28;20054;-70
2020/12/05 07:15:22;;;;;;;45.40;17.35;;;;;;;;;;6231988;28;20053;-71
2020/12/05 07:18:27;;;;;;;56.47;18.13;;;;;;;;;;6236360;28;20053;-70
2020/12/05 07:21:29;;;;;;;55.97;17.70;;;;;;;;;;6215121;28;20054;-70
2020/12/05 07:24:30;;;;;;;49.60;19.02;;;;;;;;;;6210054;28;20050;-70
2020/12/05 07:27:32;;;;;;;55.65;19.60;;;;;;;;;;6213160;28;20088;-70
2020/12/05 07:30:33;;;;;;;53.03;18.58;;;;;;;;;;6234639;28;20045;-70
2020/12/05 07:33:35;;;;;;;50.45;18.73;;;;;;;;;;6216675;28;20046;-70
2020/12/05 07:36:37;;;;;;;47.17;18.85;;;;;;;;;;6214676;28;20170;-69
2020/12/05 07:39:43;;;;;;;51.50;20.30;;;;;;;;;;6218262;28;20045;-69
2020/12/05 07:42:45;;;;;;;45.58;17.25;;;;;;;;;;6215484;28;20566;-70
2020/12/05 07:45:47;;;;;;;49.22;17.25;;;;;;;;;;6206596;28;20796;-69
2020/12/05 07:48:48;;;;;;;47.75;19.67;;;;;;;;;;6215057;28;20048;-70
2020/12/05 07:51:51;;;;;;;54.35;19.67;;;;;;;;;;6216136;28;20184;-70
2020/12/05 07:54:55;;;;;;;53.13;20.25;;;;;;;;;;6192311;28;20068;-70
2020/12/05 07:57:57;;;;;;;51.10;17.27;;;;;;;;;;6217533;28;20457;-70
2020/12/05 08:00:58;;;;;;;47.72;18.83;;;;;;;;;;6233065;28;20039;-70
2020/12/05 08:04:24;;;;;;;53.75;17.67;;;;;;;;;;6213419;28;20064;-70
2020/12/05 08:07:38;;;;;;;51.78;18.80;;;;;;;;;;6213953;28;20477;-70
2020/12/05 08:10:39;;;;;;;54.45;20.58;;;;;;;;;;6216804;28;20049;-69
2020/12/05 08:13:41;;;;;;;59.35;20.17;;;;;;;;;;6210220;28;20566;-70
2020/12/05 08:16:42;;;;;;;52.80;19.65;;;;;;;;;;6208732;28;20115;-70
2020/12/05 08:19:43;;;;;;;48.53;18.23;;;;;;;;;;6210629;28;20131;-70
2020/12/05 08:22:45;;;;;;;73.00;20.23;;;;;;;;;;6210970;28;20049;-69
2020/12/05 08:25:47;;;;;;;56.80;18.33;;;;;;;;;;6216858;28;20151;-70
2020/12/05 08:28:49;;;;;;;45.78;18.27;;;;;;;;;;6223676;28;20124;-69
2020/12/05 08:31:50;;;;;;;50.78;18.83;;;;;;;;;;6220394;28;20049;-69
2020/12/05 08:35:01;;;;;;;51.85;19.77;;;;;;;;;;6242267;28;20056;-70
2020/12/05 08:38:03;;;;;;;57.22;19.92;;;;;;;;;;6218163;28;20567;-70
2020/12/05 08:41:04;;;;;;;55.88;21.83;;;;;;;;;;6215249;28;20129;-70
2020/12/05 08:44:10;;;;;;;54.17;21.98;;;;;;;;;;6224190;28;20046;-70
2020/12/05 08:47:11;;;;;;;57.70;23.13;;;;;;;;;;6243186;28;20041;-70
2020/12/05 08:50:23;;;;;;;57.17;20.58;;;;;;;;;;6242402;28;20041;-69
2020/12/05 08:53:24;;;;;;;47.97;18.85;;;;;;;;;;6237531;28;20054;-69
2020/12/05 08:56:25;;;;;;;51.03;19.80;;;;;;;;;;6242999;28;20196;-69
2020/12/05 08:59:27;;;;;;;55.53;18.98;;;;;;;;;;6239492;28;20889;-69
2020/12/05 09:02:36;;;;;;;63.90;21.85;;;;;;;;;;5537104;28;10000791;-68
2020/12/05 09:05:45;;;;;;;61.03;23.42;;;;;;;;;;6233824;28;20061;-69
2020/12/05 09:08:46;;;;;;;72.82;28.45;;;;;;;;;;6239423;28;20064;-69
2020/12/05 09:11:47;;;;;;;77.43;27.05;;;;;;;;;;6226033;28;20095;-69
2020/12/05 09:14:50;;;;;;;78.40;23.73;;;;;;;;;;6245363;28;20065;-69
2020/12/05 09:17:55;;;;;;;64.53;24.85;;;;;;;;;;6226957;28;20485;-69
2020/12/05 09:20:56;;;;;;;66.35;24.10;;;;;;;;;;6231046;28;20049;-69
2020/12/05 09:23:58;;;;;;;49.13;19.73;;;;;;;;;;6213661;28;20049;-69
2020/12/05 09:26:59;;;;;;;67.35;24.02;;;;;;;;;;6222592;28;20167;-70
2020/12/05 09:30:02;;;;;;;40.55;18.23;;;;;;;;;;6211042;28;20057;-70
2020/12/05 09:33:10;;;;;;;42.08;17.50;;;;;;;;;;6209952;28;20161;-70
2020/12/05 09:36:11;;;;;;;41.97;16.23;;;;;;;;;;6211838;28;20103;-70
2020/12/05 09:39:12;;;;;;;44.58;17.77;;;;;;;;;;6228091;28;20134;-71
2020/12/05 09:42:22;;;;;;;39.53;16.30;;;;;;;;;;6210855;28;20163;-70
2020/12/05 09:45:25;;;;;;;43.90;16.77;;;;;;;;;;6211246;28;20058;-70
2020/12/05 09:48:26;;;;;;;36.40;15.27;;;;;;;;;;6214052;28;20599;-70
2020/12/05 09:51:28;;;;;;;33.47;13.32;;;;;;;;;;6215471;28;20176;-70
2020/12/05 09:54:29;;;;;;;31.92;13.88;;;;;;;;;;6220800;28;20041;-70
2020/12/05 09:57:31;;;;;;;27.92;13.52;;;;;;;;;;6238521;28;20465;-70
2020/12/05 10:00:33;;;;;;;33.10;13.63;;;;;;;;;;6241883;28;20049;-70
2020/12/05 10:03:34;;;;;;;27.10;12.55;;;;;;;;;;6242185;28;20045;-70
2020/12/05 10:06:35;;;;;;;32.92;12.30;;;;;;;;;;6249839;28;20094;-70
2020/12/05 10:09:41;;;;;;;24.50;12.00;;;;;;;;;;6222559;28;20111;-70
2020/12/05 10:12:44;;;;;;;25.77;12.98;;;;;;;;;;6185647;28;20058;-69
2020/12/05 10:15:46;;;;;;;31.30;12.20;;;;;;;;;;6189802;28;20053;-69
2020/12/05 10:18:47;;;;;;;31.45;12.98;;;;;;;;;;6183632;28;20128;-70
2020/12/05 10:21:48;;;;;;;25.20;11.68;;;;;;;;;;5496150;28;10001356;-69
2020/12/05 10:24:50;;;;;;;29.00;12.95;;;;;;;;;;6185826;28;20043;-70
2020/12/05 10:27:51;;;;;;;23.48;12.00;;;;;;;;;;6165089;28;20137;-70
2020/12/05 10:30:53;;;;;;;24.48;11.52;;;;;;;;;;6164988;28;20173;-70
2020/12/05 10:33:54;;;;;;;23.17;11.88;;;;;;;;;;6160254;28;20097;-70
2020/12/05 10:36:55;;;;;;;28.13;14.05;;;;;;;;;;6159942;28;20104;-70
2020/12/05 10:39:56;;;;;;;26.02;13.02;;;;;;;;;;6171999;28;20054;-70
2020/12/05 10:42:57;;;;;;;20.88;11.75;;;;;;;;;;6193043;28;20051;-70
2020/12/05 10:46:01;;;;;;;20.50;12.32;;;;;;;;;;6185247;28;20185;-70
2020/12/05 10:49:02;;;;;;;30.70;15.73;;;;;;;;;;6172531;28;20075;-68
2020/12/05 10:52:03;;;;;;;40.88;20.83;;;;;;;;;;6171919;28;20070;-69
2020/12/05 10:55:04;;;;;;;45.15;21.30;;;;;;;;;;6164887;28;20104;-69
2020/12/05 10:58:05;;;;;;;37.65;19.88;;;;;;;;;;6169625;28;20138;-70
2020/12/05 11:01:07;;;;;;;39.80;20.20;;;;;;;;;;6167098;28;20132;-69
2020/12/05 11:04:09;;;;;;;44.20;22.35;;;;;;;;;;6164342;28;20131;-70
2020/12/05 11:07:10;;;;;;;45.45;21.88;;;;;;;;;;6165318;28;20113;-69
2020/12/05 11:10:11;;;;;;;48.67;21.92;;;;;;;;;;6176411;28;20077;-71
2020/12/05 11:13:12;;;;;;;45.22;22.55;;;;;;;;;;6215562;28;20136;-71
2020/12/05 11:16:18;;;;;;;44.53;22.98;;;;;;;;;;6226023;28;20094;-70
2020/12/05 11:19:19;;;;;;;48.47;23.10;;;;;;;;;;6237740;28;20136;-70
2020/12/05 11:22:20;;;;;;;73.40;25.23;;;;;;;;;;6227838;28;20045;-70
2020/12/05 11:25:21;;;;;;;51.85;22.55;;;;;;;;;;6216514;28;20049;-70
2020/12/05 11:28:22;;;;;;;51.95;22.17;;;;;;;;;;6215930;28;20120;-68
2020/12/05 11:31:24;;;;;;;46.55;21.65;;;;;;;;;;6208049;28;20111;-71
2020/12/05 11:34:25;;;;;;;48.33;20.15;;;;;;;;;;6207159;28;20579;-71
2020/12/05 11:37:26;;;;;;;47.92;20.38;;;;;;;;;;6206285;28;20490;-70
2020/12/05 11:40:27;;;;;;;44.25;18.45;;;;;;;;;;6207881;28;20125;-70
2020/12/05 11:43:28;;;;;;;39.03;19.15;;;;;;;;;;6208993;28;20095;-71
2020/12/05 11:46:30;;;;;;;38.55;17.63;;;;;;;;;;6206597;28;20096;-72
2020/12/05 11:49:32;;;;;;;49.00;17.90;;;;;;;;;;6206490;28;21584;-72
2020/12/05 11:52:33;;;;;;;46.53;18.75;;;;;;;;;;6208473;28;20064;-72
2020/12/05 11:55:34;;;;;;;45.28;19.42;;;;;;;;;;6214342;28;20045;-70
2020/12/05 11:58:37;;;;;;;50.28;18.30;;;;;;;;;;6228750;28;20111;-72
2020/12/05 12:01:41;;;;;;;38.00;17.80;;;;;;;;;;6225139;28;20044;-71
2020/12/05 12:04:42;;;;;;;47.88;18.77;;;;;;;;;;6234491;28;20408;-71
2020/12/05 12:07:43;;;;;;;46.78;18.08;;;;;;;;;;6235822;28;20042;-69
2020/12/05 12:10:44;;;;;;;41.70;18.60;;;;;;;;;;6234649;28;20038;-69
2020/12/05 12:13:45;;;;;;;40.88;17.77;;;;;;;;;;6236566;28;20041;-69
2020/12/05 12:16:47;;;;;;;42.63;18.00;;;;;;;;;;6229523;28;20087;-73
2020/12/05 12:19:48;;;;;;;44.88;18.02;;;;;;;;;;6232862;28;20469;-72
2020/12/05 12:22:50;;;;;;;41.20;18.77;;;;;;;;;;6234754;28;20095;-73
2020/12/05 12:25:52;;;;;;;43.60;18.42;;;;;;;;;;6231153;28;20072;-70
2020/12/05 12:28:53;;;;;;;42.92;17.15;;;;;;;;;;6227193;28;20493;-71
2020/12/05 12:31:55;;;;;;;45.83;17.20;;;;;;;;;;6231308;28;20045;-71
2020/12/05 12:34:56;;;;;;;40.63;16.50;;;;;;;;;;6231571;28;20053;-68
2020/12/05 12:37:57;;;;;;;50.38;19.75;;;;;;;;;;6231547;28;20107;-68
2020/12/05 12:40:58;;;;;;;45.83;17.98;;;;;;;;;;6233768;28;20530;-68
2020/12/05 12:43:59;;;;;;;42.65;17.40;;;;;;;;;;6233350;28;20176;-70
2020/12/05 12:47:11;;;;;;;41.38;17.33;;;;;;;;;;6233823;28;20497;-69
2020/12/05 12:50:12;;;;;;;42.70;18.50;;;;;;;;;;6233854;28;20037;-69
2020/12/05 12:53:14;;;;;;;36.70;16.70;;;;;;;;;;6239616;28;20103;-68
2020/12/05 12:56:18;;;;;;;58.72;19.58;;;;;;;;;;6232315;28;20869;-68
2020/12/05 12:59:19;;;;;;;47.90;18.80;;;;;;;;;;5886195;28;9999824;-69
2020/12/05 13:02:21;;;;;;;48.92;19.23;;;;;;;;;;6212942;28;20075;-69
2020/12/05 13:05:22;;;;;;;45.83;18.25;;;;;;;;;;6213447;28;20128;-69
2020/12/05 13:08:23;;;;;;;41.10;17.60;;;;;;;;;;6228357;28;20038;-71
2020/12/05 13:11:24;;;;;;;48.47;19.42;;;;;;;;;;6209229;28;20707;-71
2020/12/05 13:14:25;;;;;;;54.85;19.92;;;;;;;;;;6213295;28;20191;-69
2020/12/05 13:17:27;;;;;;;61.35;21.80;;;;;;;;;;6205660;28;20110;-70
2020/12/05 13:20:28;;;;;;;47.83;19.90;;;;;;;;;;5538910;28;10000560;-70
2020/12/05 13:23:29;;;;;;;41.55;18.23;;;;;;;;;;6237154;28;20546;-70
2020/12/05 13:26:32;;;;;;;43.97;19.13;;;;;;;;;;6236616;28;20049;-70
2020/12/05 13:29:33;;;;;;;38.80;17.45;;;;;;;;;;6238431;28;20077;-70
2020/12/05 13:32:35;;;;;;;42.05;17.00;;;;;;;;;;6237159;28;20128;-70
2020/12/05 13:35:36;;;;;;;40.75;17.10;;;;;;;;;;6237849;28;20041;-70
2020/12/05 13:38:38;;;;;;;33.50;16.38;;;;;;;;;;6235542;28;20521;-70
2020/12/05 13:41:40;;;;;;;39.50;16.80;;;;;;;;;;6235991;28;20061;-70
2020/12/05 13:44:41;;;;;;;33.53;15.15;;;;;;;;;;6236318;28;20309;-70
2020/12/05 13:47:43;;;;;;;35.20;16.35;;;;;;;;;;6236036;28;20114;-70
2020/12/05 13:50:44;;;;;;;32.03;15.70;;;;;;;;;;6215501;28;20131;-70
2020/12/05 13:53:45;;;;;;;35.47;16.85;;;;;;;;;;6217007;28;20921;-70
2020/12/05 13:56:46;;;;;;;42.70;18.52;;;;;;;;;;6234840;28;20041;-70
2020/12/05 13:59:47;;;;;;;41.13;18.77;;;;;;;;;;6217384;28;20046;-70
2020/12/05 14:02:49;;;;;;;39.17;17.60;;;;;;;;;;6227712;28;20400;-70
2020/12/05 14:05:50;;;;;;;39.72;18.88;;;;;;;;;;6235486;28;20527;-71
2020/12/05 14:08:51;;;;;;;40.67;18.30;;;;;;;;;;6218972;28;20046;-70
2020/12/05 14:11:53;;;;;;;26.27;13.73;;;;;;;;;;6237607;28;20054;-70
2020/12/05 14:14:54;;;;;;;31.88;15.77;;;;;;;;;;6231473;28;20167;-71
2020/12/05 14:17:55;;;;;;;30.92;14.98;;;;;;;;;;6235512;28;20050;-71
2020/12/05 14:20:56;;;;;;;27.83;14.02;;;;;;;;;;6237802;28;20140;-71
2020/12/05 14:23:58;;;;;;;29.90;14.52;;;;;;;;;;6236765;28;20077;-71
2020/12/05 14:26:59;;;;;;;29.42;13.95;;;;;;;;;;6235539;28;20042;-71
2020/12/05 14:30:00;;;;;;;26.98;15.18;;;;;;;;;;6231735;28;20566;-71
2020/12/05 14:33:02;;;;;;;30.55;13.98;;;;;;;;;;6236650;28;20223;-71
2020/12/05 14:36:03;;;;;;;31.23;15.52;;;;;;;;;;6221476;28;20054;-71
2020/12/05 14:39:04;;;;;;;28.77;14.13;;;;;;;;;;6207064;28;20076;-72
2020/12/05 14:42:05;;;;;;;26.35;12.85;;;;;;;;;;6210851;28;20076;-70
2020/12/05 14:45:07;;;;;;;26.17;12.60;;;;;;;;;;6228172;28;20045;-70
2020/12/05 14:48:09;;;;;;;35.47;14.65;;;;;;;;;;6234143;28;20049;-70
2020/12/05 14:51:11;;;;;;;30.15;14.40;;;;;;;;;;6227299;28;20045;-70
2020/12/05 14:54:13;;;;;;;31.38;14.45;;;;;;;;;;6221412;28;20469;-69
2020/12/05 14:57:14;;;;;;;32.65;16.63;;;;;;;;;;6227244;28;20049;-69
2020/12/05 15:00:15;;;;;;;26.00;12.82;;;;;;;;;;6237527;28;20211;-69
2020/12/05 15:03:17;;;;;;;29.23;15.63;;;;;;;;;;5541302;28;10000134;-70
2020/12/05 15:06:18;;;;;;;23.30;13.23;;;;;;;;;;6226251;28;20431;-70
2020/12/05 15:09:19;;;;;;;18.38;10.52;;;;;;;;;;6225624;28;20856;-69
2020/12/05 15:12:20;;;;;;;18.30;10.40;;;;;;;;;;6234528;28;20489;-70
2020/12/05 15:15:23;;;;;;;17.30;10.77;;;;;;;;;;6235864;28;20053;-71
2020/12/05 15:18:25;;;;;;;19.75;10.25;;;;;;;;;;6233129;28;20051;-70
2020/12/05 15:21:26;;;;;;;20.10;10.52;;;;;;;;;;6222408;28;20122;-71
2020/12/05 15:24:27;;;;;;;17.70;10.77;;;;;;;;;;6214717;28;20129;-70
2020/12/05 15:27:28;;;;;;;21.52;11.82;;;;;;;;;;6212593;28;20057;-70
2020/12/05 15:30:29;;;;;;;16.55;10.63;;;;;;;;;;6210162;28;20514;-70
2020/12/05 15:33:31;;;;;;;17.42;10.23;;;;;;;;;;6208528;28;20141;-70
2020/12/05 15:36:33;;;;;;;19.05;10.05;;;;;;;;;;6215426;28;20176;-70
2020/12/05 15:39:34;;;;;;;19.15;10.23;;;;;;;;;;6214964;28;20099;-70
2020/12/05 15:42:35;;;;;;;16.98;10.32;;;;;;;;;;6213323;28;20720;-73
2020/12/05 15:45:36;;;;;;;18.90;10.77;;;;;;;;;;6209179;28;20188;-69
2020/12/05 15:48:38;;;;;;;17.95;10.60;;;;;;;;;;6206739;28;20132;-71
2020/12/05 15:51:39;;;;;;;20.05;11.45;;;;;;;;;;6195740;28;20887;-69
2020/12/05 15:54:40;;;;;;;19.25;11.23;;;;;;;;;;6204012;28;20108;-69
2020/12/05 15:57:41;;;;;;;19.95;10.45;;;;;;;;;;6224533;28;20130;-68
2020/12/05 16:00:42;;;;;;;16.85;11.02;;;;;;;;;;6219753;28;20050;-68
2020/12/05 16:03:45;;;;;;;17.88;11.10;;;;;;;;;;6229930;28;20119;-69
2020/12/05 16:06:49;;;;;;;17.75;10.68;;;;;;;;;;6222226;28;20758;-68
2020/12/05 16:09:50;;;;;;;17.83;11.13;;;;;;;;;;6214514;28;20529;-68
2020/12/05 16:12:53;;;;;;;16.33;10.60;;;;;;;;;;6213624;28;20042;-69
2020/12/05 16:15:54;;;;;;;15.57;10.20;;;;;;;;;;6209946;28;20402;-69
2020/12/05 16:18:56;;;;;;;17.00;10.85;;;;;;;;;;6213084;28;20080;-69
2020/12/05 16:21:57;;;;;;;17.38;11.02;;;;;;;;;;6213885;28;20061;-68
2020/12/05 16:24:58;;;;;;;17.13;11.98;;;;;;;;;;6209164;28;20564;-69
2020/12/05 16:27:59;;;;;;;18.13;11.45;;;;;;;;;;6210229;28;20127;-68
2020/12/05 16:31:01;;;;;;;17.42;11.90;;;;;;;;;;6214142;28;20045;-68
2020/12/05 16:34:02;;;;;;;16.15;11.93;;;;;;;;;;6202838;28;20179;-68
2020/12/05 16:37:03;;;;;;;16.85;12.35;;;;;;;;;;6219649;28;20045;-68
2020/12/05 16:40:05;;;;;;;19.30;12.63;;;;;;;;;;6233635;28;20147;-67
2020/12/05 16:43:06;;;;;;;20.00;13.80;;;;;;;;;;6232853;28;20180;-67
2020/12/05 16:46:07;;;;;;;18.90;12.85;;;;;;;;;;6232621;28;20053;-67
2020/12/05 16:49:09;;;;;;;19.17;13.35;;;;;;;;;;6237089;28;20136;-68
2020/12/05 16:52:10;;;;;;;21.80;14.68;;;;;;;;;;6232661;28;20060;-69
2020/12/05 16:55:11;;;;;;;21.30;13.05;;;;;;;;;;6238225;28;20493;-69
2020/12/05 16:58:12;;;;;;;19.52;13.48;;;;;;;;;;6228346;28;20051;-67
2020/12/05 17:01:18;;;;;;;20.73;13.70;;;;;;;;;;6233335;28;20132;-67
2020/12/05 17:04:20;;;;;;;19.65;13.35;;;;;;;;;;6235925;28;20041;-66
2020/12/05 17:07:21;;;;;;;17.75;13.13;;;;;;;;;;6236353;28;20041;-66
2020/12/05 17:10:22;;;;;;;18.10;11.55;;;;;;;;;;6235053;28;20183;-66
2020/12/05 17:13:23;;;;;;;16.60;11.68;;;;;;;;;;6237578;28;20503;-67
2020/12/05 17:16:24;;;;;;;14.93;10.98;;;;;;;;;;6230672;28;20053;-66
2020/12/05 17:19:26;;;;;;;14.95;10.55;;;;;;;;;;6234933;28;20051;-68
2020/12/05 17:22:30;;;;;;;17.50;13.30;;;;;;;;;;6237309;28;20611;-67
2020/12/05 17:25:31;;;;;;;16.23;11.90;;;;;;;;;;6236976;28;20052;-67
2020/12/05 17:28:32;;;;;;;17.85;11.88;;;;;;;;;;6236526;28;20230;-67
2020/12/05 17:31:33;;;;;;;19.50;12.52;;;;;;;;;;6228633;28;20128;-67
2020/12/05 17:34:35;;;;;;;17.83;10.93;;;;;;;;;;6218099;28;20390;-67
2020/12/05 17:37:36;;;;;;;15.65;10.65;;;;;;;;;;6233013;28;20076;-68
2020/12/05 17:40:37;;;;;;;15.50;12.05;;;;;;;;;;6236201;28;20046;-68